createdAt,value
2019-01-20T00:01:38.287Z,6.80
2019-01-20T00:06:53.718Z,6.70
2019-01-20T00:12:09.197Z,6.00
2019-01-20T00:17:24.736Z,6.13
2019-01-20T00:22:40.354Z,6.27
2019-01-20T00:27:55.699Z,6.03
2019-01-20T00:33:11.802Z,6.70
2019-01-20T00:38:27.252Z,7.17
2019-01-20T00:43:42.693Z,7.33
2019-01-20T00:48:58.792Z,7.50
2019-01-20T00:54:14.873Z,6.90
2019-01-20T00:59:30.593Z,6.90
2019-01-20T01:04:46.583Z,6.13
2019-01-20T01:10:01.997Z,6.77
2019-01-20T01:15:17.235Z,7.00
2019-01-20T01:20:33.038Z,6.70
2019-01-20T01:25:49.134Z,6.33
2019-01-20T01:31:04.486Z,5.90
2019-01-20T01:36:20.230Z,6.37
2019-01-20T01:41:39.185Z,6.90
2019-01-20T01:46:53.242Z,5.93
2019-01-20T01:52:08.905Z,5.20
2019-01-20T01:57:24.903Z,5.43
2019-01-20T02:02:41.186Z,5.80
2019-01-20T02:07:57.083Z,6.13
2019-01-20T02:13:13.185Z,5.70
2019-01-20T02:18:29.208Z,5.60
2019-01-20T02:23:44.450Z,5.43
2019-01-20T02:29:00.333Z,5.13
2019-01-20T02:34:15.813Z,5.40
2019-01-20T02:39:31.488Z,6.20
2019-01-20T02:44:47.782Z,4.67
2019-01-20T02:50:03.315Z,5.40
2019-01-20T02:55:18.843Z,5.97
2019-01-20T03:00:34.458Z,5.70
2019-01-20T03:05:50.142Z,5.80
2019-01-20T03:11:05.973Z,6.40
2019-01-20T03:16:21.452Z,5.87
2019-01-20T03:21:36.654Z,5.37
2019-01-20T03:26:52.255Z,5.43
2019-01-20T03:32:08.644Z,5.50
2019-01-20T03:37:24.218Z,5.23
2019-01-20T03:42:39.757Z,4.60
2019-01-20T03:47:55.885Z,5.03
2019-01-20T03:53:11.270Z,5.40
2019-01-20T03:58:27.313Z,5.03
2019-01-20T04:03:43.477Z,5.20
2019-01-20T04:08:59.329Z,4.50
2019-01-20T04:14:14.722Z,5.00
2019-01-20T04:19:30.732Z,4.43
2019-01-20T04:24:46.254Z,4.23
2019-01-20T04:30:02.057Z,4.77
2019-01-20T04:35:17.846Z,4.27
2019-01-20T04:40:33.383Z,4.67
2019-01-20T04:45:49.210Z,4.43
2019-01-20T04:51:04.716Z,4.27
2019-01-20T04:56:20.376Z,4.33
2019-01-20T05:01:36.074Z,5.23
2019-01-20T05:06:51.743Z,4.63
2019-01-20T05:12:07.772Z,5.30
2019-01-20T05:17:11.198Z,4.83
2019-01-20T05:22:33.957Z,5.13
2019-01-20T05:27:56.721Z,5.00
2019-01-20T05:33:19.733Z,5.43
2019-01-20T05:38:35.461Z,5.47
2019-01-20T05:43:51.181Z,4.53
2019-01-20T05:49:06.861Z,5.10
2019-01-20T05:54:22.938Z,4.30
2019-01-20T05:59:38.205Z,5.37
2019-01-20T06:04:53.990Z,5.43
2019-01-20T06:10:09.249Z,4.97
2019-01-20T06:15:24.778Z,4.80
2019-01-20T06:20:41.141Z,5.67
2019-01-20T06:25:56.918Z,4.90
2019-01-20T06:31:12.635Z,4.97
2019-01-20T06:36:28.438Z,4.63
2019-01-20T06:41:44.122Z,4.70
2019-01-20T06:47:01.081Z,5.10
2019-01-20T06:52:17.278Z,4.57
2019-01-20T06:57:32.768Z,4.63
2019-01-20T07:02:48.393Z,4.73
2019-01-20T07:08:04.017Z,4.27
2019-01-20T07:13:19.589Z,5.10
2019-01-20T07:18:35.605Z,3.90
2019-01-20T07:23:51.478Z,4.17
2019-01-20T07:29:07.480Z,4.20
2019-01-20T07:34:22.990Z,4.03
2019-01-20T07:39:38.618Z,4.47
2019-01-20T07:44:54.024Z,3.97
2019-01-20T07:50:09.424Z,4.03
2019-01-20T07:55:25.438Z,3.60
2019-01-20T08:00:41.246Z,4.60
2019-01-20T08:05:57.073Z,4.10
2019-01-20T08:11:12.561Z,4.17
2019-01-20T08:16:28.094Z,4.53
2019-01-20T08:21:45.817Z,5.43
2019-01-20T08:27:01.313Z,5.50
2019-01-20T08:32:18.429Z,5.60
2019-01-20T08:37:34.460Z,6.00
2019-01-20T08:42:49.887Z,6.17
2019-01-20T08:48:05.483Z,5.70
2019-01-20T08:53:21.442Z,6.30
2019-01-20T08:58:36.929Z,6.17
2019-01-20T09:03:53.202Z,5.47
2019-01-20T09:09:08.837Z,6.00
2019-01-20T09:14:24.797Z,5.60
2019-01-20T09:19:41.142Z,6.17
2019-01-20T09:24:56.718Z,6.10
2019-01-20T09:30:12.338Z,6.07
2019-01-20T09:35:28.041Z,5.07
2019-01-20T09:40:44.117Z,5.10
2019-01-20T09:45:59.826Z,4.43
2019-01-20T09:51:15.337Z,4.00
2019-01-20T09:56:18.992Z,4.60
2019-01-20T10:01:42.006Z,3.90
2019-01-20T10:07:05.116Z,4.00
2019-01-20T10:12:27.913Z,4.13
2019-01-20T10:17:50.937Z,4.13
2019-01-20T10:22:54.684Z,4.33
2019-01-20T10:27:58.104Z,4.30
2019-01-20T10:33:20.891Z,4.23
2019-01-20T10:38:37.388Z,4.67
2019-01-20T10:43:53.592Z,4.20
2019-01-20T10:49:09.534Z,4.30
2019-01-20T10:54:25.525Z,5.17
2019-01-20T10:59:40.834Z,4.37
2019-01-20T11:04:57.582Z,4.27
2019-01-20T11:10:13.937Z,4.40
2019-01-20T11:15:29.385Z,3.93
2019-01-20T11:20:45.054Z,2.93
2019-01-20T11:26:00.630Z,3.37
2019-01-20T11:31:16.117Z,3.27
2019-01-20T11:36:31.717Z,3.60
2019-01-20T11:41:48.681Z,3.93
2019-01-20T11:47:05.731Z,3.67
2019-01-20T11:52:21.574Z,3.17
2019-01-20T11:57:37.157Z,2.97
2019-01-20T12:02:52.393Z,3.00
2019-01-20T12:08:08.046Z,2.97
2019-01-20T12:13:26.460Z,3.20
2019-01-20T12:18:30.019Z,2.93
2019-01-20T12:23:53.012Z,3.47
2019-01-20T12:29:15.773Z,3.63
2019-01-20T12:34:38.765Z,3.27
2019-01-20T12:39:54.002Z,3.90
2019-01-20T12:45:09.868Z,3.50
2019-01-20T12:50:25.478Z,3.70
2019-01-20T12:55:41.095Z,3.60
2019-01-20T13:00:56.931Z,4.40
2019-01-20T13:06:12.847Z,3.90
2019-01-20T13:11:28.509Z,4.10
2019-01-20T13:16:44.070Z,4.67
2019-01-20T13:21:59.637Z,4.20
2019-01-20T13:27:14.900Z,4.43
2019-01-20T13:32:30.604Z,4.87
2019-01-20T13:37:46.344Z,5.30
2019-01-20T13:43:02.473Z,5.23
2019-01-20T13:48:18.146Z,6.50
2019-01-20T13:53:34.149Z,6.10
2019-01-20T13:58:49.722Z,5.43
2019-01-20T14:04:05.416Z,5.53
2019-01-20T14:09:20.782Z,5.57
2019-01-20T14:14:36.461Z,5.60
2019-01-20T14:19:51.989Z,5.03
2019-01-20T14:25:07.694Z,5.00
2019-01-20T14:30:23.197Z,5.07
2019-01-20T14:35:38.557Z,5.70
2019-01-20T14:40:54.365Z,5.20
2019-01-20T14:46:10.275Z,5.43
2019-01-20T14:51:25.861Z,6.00
2019-01-20T14:56:42.738Z,5.83
2019-01-20T15:01:58.205Z,4.90
2019-01-20T15:07:14.358Z,5.30
2019-01-20T15:12:29.900Z,5.90
2019-01-20T15:17:45.038Z,7.60
2019-01-20T15:23:01.089Z,6.80
2019-01-20T15:28:16.510Z,17.43
2019-01-20T15:33:31.814Z,7.07
2019-01-20T15:38:47.799Z,6.30
2019-01-20T15:44:03.616Z,7.80
2019-01-20T15:49:19.242Z,5.93
2019-01-20T15:54:34.539Z,5.83
2019-01-20T15:59:50.013Z,6.40
2019-01-20T16:05:05.405Z,6.47
2019-01-20T16:10:20.833Z,6.97
2019-01-20T16:15:36.501Z,7.70
2019-01-20T16:20:52.621Z,7.70
2019-01-20T16:26:08.549Z,7.57
2019-01-20T16:31:24.398Z,7.07
2019-01-20T16:36:41.624Z,6.40
2019-01-20T16:41:57.062Z,6.97
2019-01-20T16:47:12.921Z,6.97
2019-01-20T16:52:29.031Z,8.30
2019-01-20T16:57:45.105Z,7.17
2019-01-20T17:03:00.582Z,7.50
2019-01-20T17:08:16.038Z,7.33
2019-01-20T17:13:31.741Z,7.80
2019-01-20T17:18:47.297Z,8.47
2019-01-20T17:24:03.205Z,7.90
2019-01-20T17:29:19.017Z,8.50
2019-01-20T17:34:34.466Z,8.53
2019-01-20T17:39:49.806Z,8.43
2019-01-20T17:45:05.553Z,7.27
2019-01-20T17:50:21.105Z,7.03
2019-01-20T17:55:37.019Z,6.90
2019-01-20T18:00:54.464Z,6.87
2019-01-20T18:06:10.546Z,6.53
2019-01-20T18:11:26.314Z,7.93
2019-01-20T18:16:42.117Z,6.47
2019-01-20T18:32:52.417Z,9.87
2019-01-20T18:38:07.921Z,8.80
2019-01-20T18:43:23.899Z,10.03
2019-01-20T18:48:39.488Z,11.80
2019-01-20T18:53:55.114Z,10.40
2019-01-20T18:59:12.656Z,10.07
2019-01-20T19:04:28.446Z,10.80
2019-01-20T19:09:44.053Z,9.83
2019-01-20T19:14:59.298Z,10.80
2019-01-20T19:20:14.913Z,10.70
2019-01-20T19:25:30.956Z,10.23
2019-01-20T19:30:47.259Z,11.43
2019-01-20T19:36:03.556Z,10.27
2019-01-20T19:41:07.055Z,10.77
2019-01-20T19:46:29.814Z,9.93
2019-01-20T19:51:52.576Z,10.40
2019-01-20T19:57:15.613Z,10.93
2019-01-20T20:02:38.381Z,10.80
2019-01-20T20:08:01.148Z,10.53
2019-01-20T20:13:24.163Z,11.00
2019-01-20T20:18:46.927Z,12.93
2019-01-20T20:24:09.697Z,12.20
2019-01-20T20:29:32.732Z,11.63
2019-01-20T20:34:55.496Z,11.23
2019-01-20T20:40:10.755Z,11.30
2019-01-20T20:45:26.636Z,10.70
2019-01-20T20:50:42.725Z,11.60
2019-01-20T20:55:58.369Z,10.70
2019-01-20T21:01:13.881Z,11.77
2019-01-20T21:06:29.798Z,12.00
2019-01-20T21:11:45.037Z,11.30
2019-01-20T21:17:00.506Z,10.73
2019-01-20T21:22:16.433Z,11.87
2019-01-20T21:27:32.085Z,10.63
2019-01-20T21:32:47.957Z,11.33
2019-01-20T21:38:06.909Z,10.70
2019-01-20T21:43:21.109Z,10.63
2019-01-20T21:54:10.861Z,10.97
2019-01-20T21:59:26.368Z,11.27
2019-01-20T22:04:42.065Z,11.80
2019-01-20T22:09:58.057Z,11.53
2019-01-20T22:15:14.253Z,12.03
2019-01-20T22:20:30.162Z,11.33
2019-01-20T22:25:45.400Z,12.40
2019-01-20T22:31:01.487Z,12.63
2019-01-20T22:36:16.737Z,11.80
2019-01-20T22:41:32.516Z,12.73
2019-01-20T22:46:48.255Z,11.57
2019-01-20T22:52:03.737Z,13.03
2019-01-20T22:57:07.409Z,12.87
2019-01-20T23:02:30.177Z,13.23
2019-01-20T23:07:52.947Z,12.93
2019-01-20T23:13:15.741Z,12.00
2019-01-20T23:18:38.620Z,13.20
2019-01-20T23:24:01.626Z,13.13
2019-01-20T23:29:24.394Z,12.70
2019-01-20T23:34:28.056Z,12.87
2019-01-20T23:39:43.741Z,12.83
2019-01-20T23:44:59.114Z,12.43
2019-01-20T23:50:15.161Z,12.57
2019-01-20T23:55:30.844Z,13.23
